sensor_id;sensor_type;location;lat;lon;timestamp;P1;durP1;ratioP1;P2;durP2;ratioP2
1699;SDS011;847;48.058;7.810;2023-04-15T00:02:03;2.97;;;1.83;;
1699;SDS011;847;48.058;7.810;2023-04-15T00:04:40;1.83;;;1.40;;
1699;SDS011;847;48.058;7.810;2023-04-15T00:07:06;2.40;;;1.80;;
1699;SDS011;847;48.058;7.810;2023-04-15T00:09:34;4.50;;;1.30;;
1699;SDS011;847;48.058;7.810;2023-04-15T00:12:00;3.37;;;1.50;;
1699;SDS011;847;48.058;7.810;2023-04-15T00:14:27;3.17;;;2.00;;
1699;SDS011;847;48.058;7.810;2023-04-15T00:16:55;1.77;;;1.67;;
1699;SDS011;847;48.058;7.810;2023-04-15T00:19:22;3.80;;;1.50;;
1699;SDS011;847;48.058;7.810;2023-04-15T00:21:49;4.40;;;1.50;;
1699;SDS011;847;48.058;7.810;2023-04-15T00:24:16;2.17;;;1.20;;
1699;SDS011;847;48.058;7.810;2023-04-15T00:26:43;3.20;;;1.60;;
1699;SDS011;847;48.058;7.810;2023-04-15T00:29:09;7.40;;;1.60;;
1699;SDS011;847;48.058;7.810;2023-04-15T00:31:36;2.60;;;1.30;;
1699;SDS011;847;48.058;7.810;2023-04-15T00:34:04;2.83;;;1.53;;
1699;SDS011;847;48.058;7.810;2023-04-15T00:36:31;3.23;;;1.43;;
1699;SDS011;847;48.058;7.810;2023-04-15T00:38:59;2.27;;;1.53;;
1699;SDS011;847;48.058;7.810;2023-04-15T00:41:26;2.30;;;1.47;;
1699;SDS011;847;48.058;7.810;2023-04-15T00:43:53;2.33;;;1.60;;
1699;SDS011;847;48.058;7.810;2023-04-15T00:46:20;2.27;;;1.77;;
1699;SDS011;847;48.058;7.810;2023-04-15T00:48:47;2.53;;;1.23;;
1699;SDS011;847;48.058;7.810;2023-04-15T00:51:16;2.37;;;1.57;;
1699;SDS011;847;48.058;7.810;2023-04-15T00:53:48;1.63;;;1.43;;
1699;SDS011;847;48.058;7.810;2023-04-15T00:56:20;2.40;;;1.20;;
1699;SDS011;847;48.058;7.810;2023-04-15T00:58:48;4.53;;;1.40;;
1699;SDS011;847;48.058;7.810;2023-04-15T01:01:16;1.80;;;1.27;;
1699;SDS011;847;48.058;7.810;2023-04-15T01:03:46;1.50;;;1.27;;
1699;SDS011;847;48.058;7.810;2023-04-15T01:06:13;2.87;;;1.40;;
1699;SDS011;847;48.058;7.810;2023-04-15T01:08:42;1.73;;;1.43;;
1699;SDS011;847;48.058;7.810;2023-04-15T01:11:09;3.17;;;1.47;;
1699;SDS011;847;48.058;7.810;2023-04-15T01:13:37;2.43;;;1.17;;
1699;SDS011;847;48.058;7.810;2023-04-15T01:16:05;3.10;;;1.73;;
1699;SDS011;847;48.058;7.810;2023-04-15T01:18:32;1.80;;;1.30;;
1699;SDS011;847;48.058;7.810;2023-04-15T01:21:00;1.20;;;1.10;;
1699;SDS011;847;48.058;7.810;2023-04-15T01:23:27;2.43;;;1.33;;
1699;SDS011;847;48.058;7.810;2023-04-15T01:25:56;2.13;;;1.60;;
1699;SDS011;847;48.058;7.810;2023-04-15T01:28:24;2.70;;;1.40;;
1699;SDS011;847;48.058;7.810;2023-04-15T01:31:03;1.57;;;1.37;;
1699;SDS011;847;48.058;7.810;2023-04-15T01:33:31;3.13;;;1.60;;
1699;SDS011;847;48.058;7.810;2023-04-15T01:35:58;1.93;;;1.10;;
1699;SDS011;847;48.058;7.810;2023-04-15T01:38:25;2.90;;;1.63;;
1699;SDS011;847;48.058;7.810;2023-04-15T01:40:52;1.50;;;1.40;;
1699;SDS011;847;48.058;7.810;2023-04-15T01:43:20;1.30;;;1.10;;
1699;SDS011;847;48.058;7.810;2023-04-15T01:45:47;2.13;;;1.10;;
1699;SDS011;847;48.058;7.810;2023-04-15T01:48:14;3.53;;;1.57;;
1699;SDS011;847;48.058;7.810;2023-04-15T01:50:41;2.83;;;1.17;;
1699;SDS011;847;48.058;7.810;2023-04-15T01:53:08;1.30;;;1.00;;
1699;SDS011;847;48.058;7.810;2023-04-15T01:55:35;1.97;;;1.40;;
1699;SDS011;847;48.058;7.810;2023-04-15T01:58:02;1.97;;;1.13;;
1699;SDS011;847;48.058;7.810;2023-04-15T02:00:30;3.37;;;1.37;;
1699;SDS011;847;48.058;7.810;2023-04-15T02:02:57;4.70;;;1.47;;
1699;SDS011;847;48.058;7.810;2023-04-15T02:05:24;2.17;;;1.30;;
1699;SDS011;847;48.058;7.810;2023-04-15T02:07:51;3.80;;;1.30;;
1699;SDS011;847;48.058;7.810;2023-04-15T02:10:18;3.00;;;1.43;;
1699;SDS011;847;48.058;7.810;2023-04-15T02:12:45;2.03;;;1.10;;
1699;SDS011;847;48.058;7.810;2023-04-15T02:15:12;3.57;;;1.47;;
1699;SDS011;847;48.058;7.810;2023-04-15T02:17:40;2.17;;;1.63;;
1699;SDS011;847;48.058;7.810;2023-04-15T02:20:10;1.87;;;1.30;;
1699;SDS011;847;48.058;7.810;2023-04-15T02:22:37;1.60;;;1.47;;
1699;SDS011;847;48.058;7.810;2023-04-15T02:25:04;2.00;;;1.30;;
1699;SDS011;847;48.058;7.810;2023-04-15T02:27:31;2.47;;;1.60;;
1699;SDS011;847;48.058;7.810;2023-04-15T02:29:58;2.93;;;1.43;;
1699;SDS011;847;48.058;7.810;2023-04-15T02:32:25;3.60;;;1.90;;
1699;SDS011;847;48.058;7.810;2023-04-15T02:34:54;2.00;;;1.37;;
1699;SDS011;847;48.058;7.810;2023-04-15T02:37:21;2.60;;;1.33;;
1699;SDS011;847;48.058;7.810;2023-04-15T02:39:48;2.33;;;1.47;;
1699;SDS011;847;48.058;7.810;2023-04-15T02:42:15;2.57;;;1.90;;
1699;SDS011;847;48.058;7.810;2023-04-15T02:44:42;3.67;;;1.50;;
1699;SDS011;847;48.058;7.810;2023-04-15T02:47:08;2.03;;;1.40;;
1699;SDS011;847;48.058;7.810;2023-04-15T02:49:35;1.97;;;1.60;;
1699;SDS011;847;48.058;7.810;2023-04-15T02:52:04;2.80;;;1.13;;
1699;SDS011;847;48.058;7.810;2023-04-15T02:54:31;3.50;;;1.63;;
1699;SDS011;847;48.058;7.810;2023-04-15T02:56:58;5.07;;;1.63;;
1699;SDS011;847;48.058;7.810;2023-04-15T02:59:25;4.30;;;2.33;;
1699;SDS011;847;48.058;7.810;2023-04-15T03:01:52;2.97;;;1.50;;
1699;SDS011;847;48.058;7.810;2023-04-15T03:04:20;5.07;;;1.80;;
1699;SDS011;847;48.058;7.810;2023-04-15T03:06:47;2.47;;;2.07;;
1699;SDS011;847;48.058;7.810;2023-04-15T03:09:15;2.60;;;1.50;;
1699;SDS011;847;48.058;7.810;2023-04-15T03:11:41;5.03;;;2.20;;
1699;SDS011;847;48.058;7.810;2023-04-15T03:14:08;3.57;;;2.30;;
1699;SDS011;847;48.058;7.810;2023-04-15T03:16:35;2.50;;;1.40;;
1699;SDS011;847;48.058;7.810;2023-04-15T03:19:02;2.53;;;1.73;;
1699;SDS011;847;48.058;7.810;2023-04-15T03:21:28;4.10;;;1.73;;
1699;SDS011;847;48.058;7.810;2023-04-15T03:23:55;3.80;;;1.57;;
1699;SDS011;847;48.058;7.810;2023-04-15T03:26:24;3.70;;;1.57;;
1699;SDS011;847;48.058;7.810;2023-04-15T03:28:52;1.80;;;1.50;;
1699;SDS011;847;48.058;7.810;2023-04-15T03:31:19;4.83;;;1.50;;
1699;SDS011;847;48.058;7.810;2023-04-15T03:33:45;2.50;;;1.33;;
1699;SDS011;847;48.058;7.810;2023-04-15T03:36:12;1.87;;;1.30;;
1699;SDS011;847;48.058;7.810;2023-04-15T03:38:39;5.00;;;1.83;;
1699;SDS011;847;48.058;7.810;2023-04-15T03:41:06;2.80;;;1.57;;
1699;SDS011;847;48.058;7.810;2023-04-15T03:43:34;2.40;;;1.40;;
1699;SDS011;847;48.058;7.810;2023-04-15T03:46:01;1.30;;;1.20;;
1699;SDS011;847;48.058;7.810;2023-04-15T03:48:28;1.60;;;1.40;;
1699;SDS011;847;48.058;7.810;2023-04-15T03:50:55;1.50;;;1.30;;
1699;SDS011;847;48.058;7.810;2023-04-15T03:53:21;3.17;;;1.10;;
1699;SDS011;847;48.058;7.810;2023-04-15T03:55:48;2.17;;;1.30;;
1699;SDS011;847;48.058;7.810;2023-04-15T03:58:15;4.07;;;1.30;;
1699;SDS011;847;48.058;7.810;2023-04-15T04:00:44;2.07;;;1.33;;
1699;SDS011;847;48.058;7.810;2023-04-15T04:03:10;2.27;;;1.47;;
1699;SDS011;847;48.058;7.810;2023-04-15T04:05:37;2.27;;;1.40;;
1699;SDS011;847;48.058;7.810;2023-04-15T04:08:05;4.50;;;1.27;;
1699;SDS011;847;48.058;7.810;2023-04-15T04:10:32;2.17;;;1.20;;
1699;SDS011;847;48.058;7.810;2023-04-15T04:12:59;2.50;;;1.40;;
1699;SDS011;847;48.058;7.810;2023-04-15T04:15:26;2.90;;;1.40;;
1699;SDS011;847;48.058;7.810;2023-04-15T04:17:54;1.97;;;1.40;;
1699;SDS011;847;48.058;7.810;2023-04-15T04:20:21;4.20;;;1.43;;
1699;SDS011;847;48.058;7.810;2023-04-15T04:22:47;2.47;;;1.50;;
1699;SDS011;847;48.058;7.810;2023-04-15T04:25:14;1.80;;;1.30;;
1699;SDS011;847;48.058;7.810;2023-04-15T04:27:41;2.10;;;1.27;;
1699;SDS011;847;48.058;7.810;2023-04-15T04:30:09;2.33;;;1.50;;
1699;SDS011;847;48.058;7.810;2023-04-15T04:32:36;2.67;;;1.10;;
1699;SDS011;847;48.058;7.810;2023-04-15T04:35:05;3.10;;;1.53;;
1699;SDS011;847;48.058;7.810;2023-04-15T04:37:32;1.97;;;1.47;;
1699;SDS011;847;48.058;7.810;2023-04-15T04:39:58;2.07;;;1.57;;
1699;SDS011;847;48.058;7.810;2023-04-15T04:42:25;1.73;;;1.40;;
1699;SDS011;847;48.058;7.810;2023-04-15T04:44:55;3.30;;;2.20;;
1699;SDS011;847;48.058;7.810;2023-04-15T04:47:22;2.60;;;1.27;;
1699;SDS011;847;48.058;7.810;2023-04-15T04:49:49;2.27;;;1.80;;
1699;SDS011;847;48.058;7.810;2023-04-15T04:52:17;3.77;;;1.50;;
1699;SDS011;847;48.058;7.810;2023-04-15T04:54:43;2.60;;;1.50;;
1699;SDS011;847;48.058;7.810;2023-04-15T04:57:11;3.43;;;1.90;;
1699;SDS011;847;48.058;7.810;2023-04-15T04:59:38;3.03;;;1.37;;
1699;SDS011;847;48.058;7.810;2023-04-15T05:02:05;4.60;;;1.50;;
1699;SDS011;847;48.058;7.810;2023-04-15T05:04:32;3.73;;;1.53;;
1699;SDS011;847;48.058;7.810;2023-04-15T05:06:59;3.23;;;1.60;;
1699;SDS011;847;48.058;7.810;2023-04-15T05:09:27;2.13;;;1.73;;
1699;SDS011;847;48.058;7.810;2023-04-15T05:11:56;4.47;;;1.60;;
1699;SDS011;847;48.058;7.810;2023-04-15T05:14:23;3.73;;;1.87;;
1699;SDS011;847;48.058;7.810;2023-04-15T05:16:50;6.50;;;3.03;;
1699;SDS011;847;48.058;7.810;2023-04-15T05:19:16;3.40;;;3.10;;
1699;SDS011;847;48.058;7.810;2023-04-15T05:21:43;2.53;;;2.00;;
1699;SDS011;847;48.058;7.810;2023-04-15T05:24:10;2.50;;;2.00;;
1699;SDS011;847;48.058;7.810;2023-04-15T05:26:38;1.80;;;1.50;;
1699;SDS011;847;48.058;7.810;2023-04-15T05:29:05;3.10;;;1.77;;
1699;SDS011;847;48.058;7.810;2023-04-15T05:31:31;2.43;;;1.37;;
1699;SDS011;847;48.058;7.810;2023-04-15T05:33:58;2.40;;;1.40;;
1699;SDS011;847;48.058;7.810;2023-04-15T05:36:25;2.00;;;1.63;;
1699;SDS011;847;48.058;7.810;2023-04-15T05:38:52;1.77;;;1.50;;
1699;SDS011;847;48.058;7.810;2023-04-15T05:41:19;2.07;;;1.77;;
1699;SDS011;847;48.058;7.810;2023-04-15T05:43:47;2.17;;;1.57;;
1699;SDS011;847;48.058;7.810;2023-04-15T05:46:14;4.00;;;2.00;;
1699;SDS011;847;48.058;7.810;2023-04-15T05:48:41;2.53;;;1.43;;
1699;SDS011;847;48.058;7.810;2023-04-15T05:51:07;2.53;;;1.23;;
1699;SDS011;847;48.058;7.810;2023-04-15T05:53:35;1.50;;;1.30;;
1699;SDS011;847;48.058;7.810;2023-04-15T05:56:01;4.47;;;1.53;;
1699;SDS011;847;48.058;7.810;2023-04-15T05:58:28;3.30;;;1.57;;
1699;SDS011;847;48.058;7.810;2023-04-15T06:00:56;3.27;;;1.30;;
1699;SDS011;847;48.058;7.810;2023-04-15T06:03:23;2.03;;;1.20;;
1699;SDS011;847;48.058;7.810;2023-04-15T06:05:50;2.10;;;1.60;;
1699;SDS011;847;48.058;7.810;2023-04-15T06:08:17;2.70;;;1.40;;
1699;SDS011;847;48.058;7.810;2023-04-15T06:10:44;2.03;;;1.60;;
1699;SDS011;847;48.058;7.810;2023-04-15T06:13:10;2.63;;;1.90;;
1699;SDS011;847;48.058;7.810;2023-04-15T06:15:38;2.13;;;1.93;;
1699;SDS011;847;48.058;7.810;2023-04-15T06:18:06;2.30;;;1.80;;
1699;SDS011;847;48.058;7.810;2023-04-15T06:20:33;3.97;;;1.90;;
1699;SDS011;847;48.058;7.810;2023-04-15T06:23:00;2.03;;;1.40;;
1699;SDS011;847;48.058;7.810;2023-04-15T06:25:27;1.90;;;1.37;;
1699;SDS011;847;48.058;7.810;2023-04-15T06:27:54;3.20;;;1.30;;
1699;SDS011;847;48.058;7.810;2023-04-15T06:30:20;2.57;;;1.57;;
1699;SDS011;847;48.058;7.810;2023-04-15T06:32:47;4.10;;;1.50;;
1699;SDS011;847;48.058;7.810;2023-04-15T06:35:15;1.47;;;1.30;;
1699;SDS011;847;48.058;7.810;2023-04-15T06:37:42;3.40;;;1.40;;
1699;SDS011;847;48.058;7.810;2023-04-15T06:40:09;1.30;;;1.20;;
1699;SDS011;847;48.058;7.810;2023-04-15T06:42:36;1.30;;;1.20;;
1699;SDS011;847;48.058;7.810;2023-04-15T06:45:03;2.83;;;1.30;;
1699;SDS011;847;48.058;7.810;2023-04-15T06:47:30;3.10;;;2.80;;
1699;SDS011;847;48.058;7.810;2023-04-15T06:49:57;8.10;;;1.80;;
1699;SDS011;847;48.058;7.810;2023-04-15T06:52:25;2.80;;;1.90;;
1699;SDS011;847;48.058;7.810;2023-04-15T06:54:52;3.40;;;1.57;;
1699;SDS011;847;48.058;7.810;2023-04-15T06:57:18;1.37;;;1.27;;
1699;SDS011;847;48.058;7.810;2023-04-15T06:59:45;3.47;;;1.73;;
1699;SDS011;847;48.058;7.810;2023-04-15T07:02:12;3.87;;;1.50;;
1699;SDS011;847;48.058;7.810;2023-04-15T07:04:39;2.00;;;1.80;;
1699;SDS011;847;48.058;7.810;2023-04-15T07:07:06;3.27;;;1.90;;
1699;SDS011;847;48.058;7.810;2023-04-15T07:09:34;2.20;;;2.00;;
1699;SDS011;847;48.058;7.810;2023-04-15T07:12:01;2.13;;;1.90;;
1699;SDS011;847;48.058;7.810;2023-04-15T07:14:28;3.37;;;1.70;;
1699;SDS011;847;48.058;7.810;2023-04-15T07:16:55;2.77;;;2.30;;
1699;SDS011;847;48.058;7.810;2023-04-15T07:19:21;5.67;;;2.57;;
1699;SDS011;847;48.058;7.810;2023-04-15T07:21:48;2.40;;;2.17;;
1699;SDS011;847;48.058;7.810;2023-04-15T07:24:15;2.13;;;1.93;;
1699;SDS011;847;48.058;7.810;2023-04-15T07:26:45;2.90;;;2.10;;
1699;SDS011;847;48.058;7.810;2023-04-15T07:29:11;10.10;;;2.37;;
1699;SDS011;847;48.058;7.810;2023-04-15T07:31:39;3.03;;;2.10;;
1699;SDS011;847;48.058;7.810;2023-04-15T07:34:06;5.97;;;3.53;;
1699;SDS011;847;48.058;7.810;2023-04-15T07:36:32;2.30;;;2.10;;
1699;SDS011;847;48.058;7.810;2023-04-15T07:38:59;3.17;;;2.00;;
1699;SDS011;847;48.058;7.810;2023-04-15T07:41:28;4.13;;;1.83;;
1699;SDS011;847;48.058;7.810;2023-04-15T07:43:56;3.50;;;3.00;;
1699;SDS011;847;48.058;7.810;2023-04-15T07:46:23;3.77;;;2.10;;
1699;SDS011;847;48.058;7.810;2023-04-15T07:48:51;2.87;;;1.93;;
1699;SDS011;847;48.058;7.810;2023-04-15T07:51:18;2.60;;;2.00;;
1699;SDS011;847;48.058;7.810;2023-04-15T07:53:45;3.20;;;2.07;;
1699;SDS011;847;48.058;7.810;2023-04-15T07:56:12;2.23;;;2.00;;
1699;SDS011;847;48.058;7.810;2023-04-15T07:58:39;5.30;;;2.90;;
1699;SDS011;847;48.058;7.810;2023-04-15T08:01:07;4.23;;;2.80;;
1699;SDS011;847;48.058;7.810;2023-04-15T08:03:34;3.87;;;2.90;;
1699;SDS011;847;48.058;7.810;2023-04-15T08:06:01;2.90;;;2.20;;
1699;SDS011;847;48.058;7.810;2023-04-15T08:08:28;4.10;;;2.50;;
1699;SDS011;847;48.058;7.810;2023-04-15T08:10:55;8.20;;;2.13;;
1699;SDS011;847;48.058;7.810;2023-04-15T08:13:22;4.17;;;2.00;;
1699;SDS011;847;48.058;7.810;2023-04-15T08:15:51;2.60;;;1.80;;
1699;SDS011;847;48.058;7.810;2023-04-15T08:18:39;2.80;;;2.47;;
1699;SDS011;847;48.058;7.810;2023-04-15T08:21:06;4.40;;;2.20;;
1699;SDS011;847;48.058;7.810;2023-04-15T08:23:33;5.60;;;2.57;;
1699;SDS011;847;48.058;7.810;2023-04-15T08:26:00;2.73;;;2.40;;
1699;SDS011;847;48.058;7.810;2023-04-15T08:28:27;3.33;;;2.50;;
1699;SDS011;847;48.058;7.810;2023-04-15T08:30:53;2.60;;;2.40;;
1699;SDS011;847;48.058;7.810;2023-04-15T08:33:20;3.83;;;2.53;;
1699;SDS011;847;48.058;7.810;2023-04-15T08:35:48;4.10;;;2.40;;
1699;SDS011;847;48.058;7.810;2023-04-15T08:38:15;7.43;;;3.13;;
1699;SDS011;847;48.058;7.810;2023-04-15T08:40:43;3.20;;;2.90;;
1699;SDS011;847;48.058;7.810;2023-04-15T08:43:12;4.47;;;3.00;;
1699;SDS011;847;48.058;7.810;2023-04-15T08:45:43;3.30;;;2.77;;
1699;SDS011;847;48.058;7.810;2023-04-15T08:48:12;6.10;;;2.70;;
1699;SDS011;847;48.058;7.810;2023-04-15T08:50:41;5.13;;;2.70;;
1699;SDS011;847;48.058;7.810;2023-04-15T08:53:10;3.40;;;3.10;;
1699;SDS011;847;48.058;7.810;2023-04-15T08:55:38;5.17;;;3.03;;
1699;SDS011;847;48.058;7.810;2023-04-15T08:58:08;2.67;;;2.03;;
1699;SDS011;847;48.058;7.810;2023-04-15T09:00:38;4.10;;;2.50;;
1699;SDS011;847;48.058;7.810;2023-04-15T09:03:06;5.20;;;2.57;;
1699;SDS011;847;48.058;7.810;2023-04-15T09:05:34;4.00;;;2.50;;
1699;SDS011;847;48.058;7.810;2023-04-15T09:08:02;5.83;;;3.20;;
1699;SDS011;847;48.058;7.810;2023-04-15T09:10:30;2.57;;;2.30;;
1699;SDS011;847;48.058;7.810;2023-04-15T09:13:00;4.83;;;2.47;;
1699;SDS011;847;48.058;7.810;2023-04-15T09:15:27;4.00;;;2.20;;
1699;SDS011;847;48.058;7.810;2023-04-15T09:17:55;2.40;;;2.20;;
1699;SDS011;847;48.058;7.810;2023-04-15T09:20:22;4.40;;;2.30;;
1699;SDS011;847;48.058;7.810;2023-04-15T09:22:52;3.10;;;2.90;;
1699;SDS011;847;48.058;7.810;2023-04-15T09:25:25;6.47;;;2.57;;
1699;SDS011;847;48.058;7.810;2023-04-15T09:27:57;3.00;;;2.47;;
1699;SDS011;847;48.058;7.810;2023-04-15T09:30:24;3.40;;;2.30;;
1699;SDS011;847;48.058;7.810;2023-04-15T09:32:53;3.93;;;2.87;;
1699;SDS011;847;48.058;7.810;2023-04-15T09:35:21;4.00;;;2.37;;
1699;SDS011;847;48.058;7.810;2023-04-15T09:37:49;2.63;;;2.43;;
1699;SDS011;847;48.058;7.810;2023-04-15T09:40:29;3.20;;;2.50;;
1699;SDS011;847;48.058;7.810;2023-04-15T09:42:59;2.90;;;2.30;;
1699;SDS011;847;48.058;7.810;2023-04-15T09:45:26;3.27;;;2.10;;
1699;SDS011;847;48.058;7.810;2023-04-15T09:47:53;3.53;;;2.40;;
1699;SDS011;847;48.058;7.810;2023-04-15T09:50:21;2.20;;;2.00;;
1699;SDS011;847;48.058;7.810;2023-04-15T09:52:52;4.83;;;2.70;;
1699;SDS011;847;48.058;7.810;2023-04-15T09:55:18;2.67;;;2.40;;
1699;SDS011;847;48.058;7.810;2023-04-15T09:57:45;5.93;;;2.67;;
1699;SDS011;847;48.058;7.810;2023-04-15T10:00:14;3.80;;;2.70;;
1699;SDS011;847;48.058;7.810;2023-04-15T10:02:41;2.90;;;2.70;;
1699;SDS011;847;48.058;7.810;2023-04-15T10:05:09;5.47;;;2.63;;
1699;SDS011;847;48.058;7.810;2023-04-15T10:07:38;3.70;;;3.00;;
1699;SDS011;847;48.058;7.810;2023-04-15T10:10:07;4.27;;;2.53;;
1699;SDS011;847;48.058;7.810;2023-04-15T10:12:34;4.47;;;2.83;;
1699;SDS011;847;48.058;7.810;2023-04-15T10:15:03;5.47;;;2.33;;
1699;SDS011;847;48.058;7.810;2023-04-15T10:17:33;6.30;;;2.10;;
1699;SDS011;847;48.058;7.810;2023-04-15T10:20:01;2.53;;;2.33;;
1699;SDS011;847;48.058;7.810;2023-04-15T10:22:29;2.53;;;2.33;;
1699;SDS011;847;48.058;7.810;2023-04-15T10:24:57;2.53;;;2.33;;
1699;SDS011;847;48.058;7.810;2023-04-15T10:27:24;3.63;;;2.20;;
1699;SDS011;847;48.058;7.810;2023-04-15T10:29:52;3.70;;;2.60;;
1699;SDS011;847;48.058;7.810;2023-04-15T10:32:19;4.53;;;2.10;;
1699;SDS011;847;48.058;7.810;2023-04-15T10:34:48;3.70;;;2.50;;
1699;SDS011;847;48.058;7.810;2023-04-15T10:37:19;3.00;;;2.33;;
1699;SDS011;847;48.058;7.810;2023-04-15T10:39:46;3.77;;;3.40;;
1699;SDS011;847;48.058;7.810;2023-04-15T10:42:13;3.90;;;2.60;;
1699;SDS011;847;48.058;7.810;2023-04-15T10:44:42;4.03;;;2.50;;
1699;SDS011;847;48.058;7.810;2023-04-15T10:47:13;3.83;;;3.20;;
1699;SDS011;847;48.058;7.810;2023-04-15T10:49:44;3.77;;;3.40;;
1699;SDS011;847;48.058;7.810;2023-04-15T10:52:14;3.40;;;2.60;;
1699;SDS011;847;48.058;7.810;2023-04-15T10:54:42;2.37;;;2.17;;
1699;SDS011;847;48.058;7.810;2023-04-15T10:57:13;6.60;;;3.20;;
1699;SDS011;847;48.058;7.810;2023-04-15T11:00:01;4.17;;;3.00;;
1699;SDS011;847;48.058;7.810;2023-04-15T11:02:42;3.27;;;2.27;;
1699;SDS011;847;48.058;7.810;2023-04-15T11:05:11;3.07;;;2.50;;
1699;SDS011;847;48.058;7.810;2023-04-15T11:07:41;6.07;;;2.93;;
1699;SDS011;847;48.058;7.810;2023-04-15T11:13:20;2.90;;;1.97;;
1699;SDS011;847;48.058;7.810;2023-04-15T11:15:56;2.93;;;2.63;;
1699;SDS011;847;48.058;7.810;2023-04-15T11:18:26;2.80;;;2.60;;
1699;SDS011;847;48.058;7.810;2023-04-15T11:20:57;6.03;;;2.83;;
1699;SDS011;847;48.058;7.810;2023-04-15T11:23:28;2.87;;;2.40;;
1699;SDS011;847;48.058;7.810;2023-04-15T11:26:00;3.03;;;2.73;;
1699;SDS011;847;48.058;7.810;2023-04-15T11:28:29;4.63;;;3.33;;
1699;SDS011;847;48.058;7.810;2023-04-15T11:30:58;5.20;;;3.30;;
1699;SDS011;847;48.058;7.810;2023-04-15T11:33:31;3.20;;;2.90;;
1699;SDS011;847;48.058;7.810;2023-04-15T11:35:58;3.30;;;3.00;;
1699;SDS011;847;48.058;7.810;2023-04-15T11:38:24;5.03;;;3.33;;
1699;SDS011;847;48.058;7.810;2023-04-15T11:40:53;4.00;;;3.33;;
1699;SDS011;847;48.058;7.810;2023-04-15T11:43:21;3.70;;;3.40;;
1699;SDS011;847;48.058;7.810;2023-04-15T11:45:50;3.33;;;3.03;;
1699;SDS011;847;48.058;7.810;2023-04-15T11:48:18;4.23;;;3.37;;
1699;SDS011;847;48.058;7.810;2023-04-15T11:50:51;3.23;;;2.83;;
1699;SDS011;847;48.058;7.810;2023-04-15T11:53:19;5.23;;;3.30;;
1699;SDS011;847;48.058;7.810;2023-04-15T11:55:47;3.13;;;2.73;;
1699;SDS011;847;48.058;7.810;2023-04-15T11:58:18;6.07;;;3.60;;
1699;SDS011;847;48.058;7.810;2023-04-15T12:00:46;3.40;;;2.93;;
1699;SDS011;847;48.058;7.810;2023-04-15T12:03:18;3.60;;;2.70;;
1699;SDS011;847;48.058;7.810;2023-04-15T12:06:09;2.70;;;2.20;;
1699;SDS011;847;48.058;7.810;2023-04-15T12:11:42;2.80;;;2.43;;
1699;SDS011;847;48.058;7.810;2023-04-15T12:14:19;2.77;;;2.57;;
1699;SDS011;847;48.058;7.810;2023-04-15T12:16:48;3.77;;;2.60;;
1699;SDS011;847;48.058;7.810;2023-04-15T12:19:17;3.60;;;2.93;;
1699;SDS011;847;48.058;7.810;2023-04-15T12:21:52;4.67;;;2.57;;
1699;SDS011;847;48.058;7.810;2023-04-15T12:24:22;3.77;;;2.40;;
1699;SDS011;847;48.058;7.810;2023-04-15T12:26:50;4.63;;;2.33;;
1699;SDS011;847;48.058;7.810;2023-04-15T12:29:19;4.17;;;2.30;;
1699;SDS011;847;48.058;7.810;2023-04-15T12:31:51;3.50;;;2.40;;
1699;SDS011;847;48.058;7.810;2023-04-15T12:34:24;3.73;;;2.17;;
1699;SDS011;847;48.058;7.810;2023-04-15T12:36:53;3.27;;;2.20;;
1699;SDS011;847;48.058;7.810;2023-04-15T12:39:20;4.47;;;2.37;;
1699;SDS011;847;48.058;7.810;2023-04-15T12:41:48;3.80;;;3.10;;
1699;SDS011;847;48.058;7.810;2023-04-15T12:44:15;4.00;;;2.00;;
1699;SDS011;847;48.058;7.810;2023-04-15T12:46:43;1.90;;;1.70;;
1699;SDS011;847;48.058;7.810;2023-04-15T12:49:10;3.20;;;1.80;;
1699;SDS011;847;48.058;7.810;2023-04-15T12:51:38;3.30;;;2.10;;
1699;SDS011;847;48.058;7.810;2023-04-15T12:54:05;4.97;;;2.60;;
1699;SDS011;847;48.058;7.810;2023-04-15T12:56:32;4.73;;;2.10;;
1699;SDS011;847;48.058;7.810;2023-04-15T12:58:58;4.83;;;2.83;;
1699;SDS011;847;48.058;7.810;2023-04-15T13:01:25;2.60;;;2.40;;
1699;SDS011;847;48.058;7.810;2023-04-15T13:03:53;3.63;;;2.63;;
1699;SDS011;847;48.058;7.810;2023-04-15T13:06:21;6.10;;;3.20;;
1699;SDS011;847;48.058;7.810;2023-04-15T13:08:48;3.33;;;2.60;;
1699;SDS011;847;48.058;7.810;2023-04-15T13:11:15;3.80;;;3.10;;
1699;SDS011;847;48.058;7.810;2023-04-15T13:13:42;4.10;;;1.93;;
1699;SDS011;847;48.058;7.810;2023-04-15T13:16:09;2.97;;;2.00;;
1699;SDS011;847;48.058;7.810;2023-04-15T13:18:36;3.70;;;1.97;;
1699;SDS011;847;48.058;7.810;2023-04-15T13:21:04;4.20;;;2.00;;
1699;SDS011;847;48.058;7.810;2023-04-15T13:23:31;2.60;;;1.70;;
1699;SDS011;847;48.058;7.810;2023-04-15T13:25:58;3.47;;;2.57;;
1699;SDS011;847;48.058;7.810;2023-04-15T13:28:25;4.43;;;1.93;;
1699;SDS011;847;48.058;7.810;2023-04-15T13:30:51;4.80;;;2.00;;
1699;SDS011;847;48.058;7.810;2023-04-15T13:33:18;2.20;;;1.30;;
1699;SDS011;847;48.058;7.810;2023-04-15T13:35:45;2.97;;;1.67;;
1699;SDS011;847;48.058;7.810;2023-04-15T13:38:13;2.27;;;1.60;;
1699;SDS011;847;48.058;7.810;2023-04-15T13:40:39;3.47;;;1.73;;
1699;SDS011;847;48.058;7.810;2023-04-15T13:43:06;5.00;;;1.60;;
1699;SDS011;847;48.058;7.810;2023-04-15T13:45:33;2.60;;;1.57;;
1699;SDS011;847;48.058;7.810;2023-04-15T13:48:00;2.80;;;1.60;;
1699;SDS011;847;48.058;7.810;2023-04-15T13:50:27;3.77;;;2.33;;
1699;SDS011;847;48.058;7.810;2023-04-15T13:52:53;2.40;;;1.80;;
1699;SDS011;847;48.058;7.810;2023-04-15T13:55:21;4.93;;;2.70;;
1699;SDS011;847;48.058;7.810;2023-04-15T13:57:48;3.17;;;2.00;;
1699;SDS011;847;48.058;7.810;2023-04-15T14:00:15;2.00;;;1.77;;
1699;SDS011;847;48.058;7.810;2023-04-15T14:02:45;3.13;;;1.60;;
1699;SDS011;847;48.058;7.810;2023-04-15T14:05:12;1.47;;;1.37;;
1699;SDS011;847;48.058;7.810;2023-04-15T14:07:39;3.60;;;2.50;;
1699;SDS011;847;48.058;7.810;2023-04-15T14:10:06;3.37;;;1.50;;
1699;SDS011;847;48.058;7.810;2023-04-15T14:12:35;2.20;;;1.50;;
1699;SDS011;847;48.058;7.810;2023-04-15T14:15:01;1.30;;;1.10;;
1699;SDS011;847;48.058;7.810;2023-04-15T14:17:29;1.40;;;1.30;;
1699;SDS011;847;48.058;7.810;2023-04-15T14:19:55;1.30;;;1.20;;
1699;SDS011;847;48.058;7.810;2023-04-15T14:22:22;2.03;;;1.23;;
1699;SDS011;847;48.058;7.810;2023-04-15T14:24:49;2.37;;;0.80;;
1699;SDS011;847;48.058;7.810;2023-04-15T14:27:17;5.30;;;1.33;;
1699;SDS011;847;48.058;7.810;2023-04-15T14:29:45;1.27;;;1.17;;
1699;SDS011;847;48.058;7.810;2023-04-15T14:32:12;1.70;;;1.20;;
1699;SDS011;847;48.058;7.810;2023-04-15T14:34:39;1.77;;;1.30;;
1699;SDS011;847;48.058;7.810;2023-04-15T14:37:06;1.43;;;1.10;;
1699;SDS011;847;48.058;7.810;2023-04-15T14:39:33;2.30;;;1.13;;
1699;SDS011;847;48.058;7.810;2023-04-15T14:41:59;2.30;;;1.43;;
1699;SDS011;847;48.058;7.810;2023-04-15T14:44:26;1.47;;;1.00;;
1699;SDS011;847;48.058;7.810;2023-04-15T14:46:54;1.63;;;1.03;;
1699;SDS011;847;48.058;7.810;2023-04-15T14:49:21;1.53;;;1.00;;
1699;SDS011;847;48.058;7.810;2023-04-15T14:51:48;2.57;;;1.30;;
1699;SDS011;847;48.058;7.810;2023-04-15T14:54:15;2.20;;;1.67;;
1699;SDS011;847;48.058;7.810;2023-04-15T14:56:43;2.40;;;1.43;;
1699;SDS011;847;48.058;7.810;2023-04-15T14:59:10;4.10;;;1.50;;
1699;SDS011;847;48.058;7.810;2023-04-15T15:01:36;1.93;;;1.30;;
1699;SDS011;847;48.058;7.810;2023-04-15T15:04:07;2.97;;;0.97;;
1699;SDS011;847;48.058;7.810;2023-04-15T15:06:35;3.20;;;1.13;;
1699;SDS011;847;48.058;7.810;2023-04-15T15:09:02;2.37;;;1.40;;
1699;SDS011;847;48.058;7.810;2023-04-15T15:11:29;2.60;;;1.50;;
1699;SDS011;847;48.058;7.810;2023-04-15T15:13:55;2.50;;;1.40;;
1699;SDS011;847;48.058;7.810;2023-04-15T15:16:24;2.30;;;1.30;;
1699;SDS011;847;48.058;7.810;2023-04-15T15:18:53;1.30;;;1.10;;
1699;SDS011;847;48.058;7.810;2023-04-15T15:21:21;3.03;;;1.57;;
1699;SDS011;847;48.058;7.810;2023-04-15T15:23:48;4.37;;;1.70;;
1699;SDS011;847;48.058;7.810;2023-04-15T15:26:15;3.23;;;1.33;;
1699;SDS011;847;48.058;7.810;2023-04-15T15:28:43;2.47;;;1.80;;
1699;SDS011;847;48.058;7.810;2023-04-15T15:31:10;2.53;;;1.40;;
1699;SDS011;847;48.058;7.810;2023-04-15T15:33:36;3.33;;;1.70;;
1699;SDS011;847;48.058;7.810;2023-04-15T15:36:03;2.97;;;1.03;;
1699;SDS011;847;48.058;7.810;2023-04-15T15:38:31;5.07;;;1.47;;
1699;SDS011;847;48.058;7.810;2023-04-15T15:40:58;3.40;;;1.40;;